sensor_id;sensor_type;location;lat;lon;timestamp;temperature;humidity
52211;DHT22;38179;52.756;6.906;2022-12-20T00:01:58;9.10;99.90
52211;DHT22;38179;52.756;6.906;2022-12-20T00:04:23;9.10;99.90
52211;DHT22;38179;52.756;6.906;2022-12-20T00:06:49;9.10;99.90
52211;DHT22;38179;52.756;6.906;2022-12-20T00:09:15;9.10;99.90
52211;DHT22;38179;52.756;6.906;2022-12-20T00:11:42;9.00;99.90
52211;DHT22;38179;52.756;6.906;2022-12-20T00:14:10;9.00;99.90
52211;DHT22;38179;52.756;6.906;2022-12-20T00:16:36;9.00;99.90
52211;DHT22;38179;52.756;6.906;2022-12-20T00:19:04;9.00;99.90
52211;DHT22;38179;52.756;6.906;2022-12-20T00:21:32;9.00;99.90
52211;DHT22;38179;52.756;6.906;2022-12-20T00:23:58;9.00;99.90
52211;DHT22;38179;52.756;6.906;2022-12-20T00:26:27;9.10;99.90
52211;DHT22;38179;52.756;6.906;2022-12-20T00:28:54;9.10;99.90
52211;DHT22;38179;52.756;6.906;2022-12-20T00:31:21;9.10;99.90
52211;DHT22;38179;52.756;6.906;2022-12-20T00:33:50;9.10;99.90
52211;DHT22;38179;52.756;6.906;2022-12-20T00:36:17;9.10;99.90
52211;DHT22;38179;52.756;6.906;2022-12-20T00:38:45;9.20;99.90
52211;DHT22;38179;52.756;6.906;2022-12-20T00:41:16;9.20;99.90
52211;DHT22;38179;52.756;6.906;2022-12-20T00:43:43;9.20;99.90
52211;DHT22;38179;52.756;6.906;2022-12-20T00:46:11;9.30;99.90
52211;DHT22;38179;52.756;6.906;2022-12-20T00:48:37;9.20;99.90
52211;DHT22;38179;52.756;6.906;2022-12-20T00:51:11;9.30;99.90
52211;DHT22;38179;52.756;6.906;2022-12-20T00:53:38;9.40;99.90
52211;DHT22;38179;52.756;6.906;2022-12-20T00:56:05;9.30;99.90
52211;DHT22;38179;52.756;6.906;2022-12-20T00:58:36;9.40;99.90
52211;DHT22;38179;52.756;6.906;2022-12-20T01:01:03;9.40;99.90
52211;DHT22;38179;52.756;6.906;2022-12-20T01:03:29;9.30;99.90
52211;DHT22;38179;52.756;6.906;2022-12-20T01:05:58;9.30;99.90
52211;DHT22;38179;52.756;6.906;2022-12-20T01:08:26;9.40;99.90
52211;DHT22;38179;52.756;6.906;2022-12-20T01:11:05;9.40;99.90
52211;DHT22;38179;52.756;6.906;2022-12-20T01:13:33;9.40;99.90
52211;DHT22;38179;52.756;6.906;2022-12-20T01:16:33;9.50;99.90
52211;DHT22;38179;52.756;6.906;2022-12-20T01:18:56;9.40;99.90
52211;DHT22;38179;52.756;6.906;2022-12-20T01:21:23;9.40;99.90
52211;DHT22;38179;52.756;6.906;2022-12-20T01:23:50;9.50;99.90
52211;DHT22;38179;52.756;6.906;2022-12-20T01:26:19;9.50;99.90
52211;DHT22;38179;52.756;6.906;2022-12-20T01:28:47;9.50;99.90
52211;DHT22;38179;52.756;6.906;2022-12-20T01:31:16;9.50;99.90
52211;DHT22;38179;52.756;6.906;2022-12-20T01:33:43;9.50;99.90
52211;DHT22;38179;52.756;6.906;2022-12-20T01:36:13;9.60;99.90
52211;DHT22;38179;52.756;6.906;2022-12-20T01:38:39;9.60;99.90
52211;DHT22;38179;52.756;6.906;2022-12-20T01:41:05;9.60;99.90
52211;DHT22;38179;52.756;6.906;2022-12-20T01:43:51;9.60;99.90
52211;DHT22;38179;52.756;6.906;2022-12-20T01:46:19;9.60;99.90
52211;DHT22;38179;52.756;6.906;2022-12-20T01:48:51;9.60;99.90
52211;DHT22;38179;52.756;6.906;2022-12-20T01:51:18;9.50;99.90
52211;DHT22;38179;52.756;6.906;2022-12-20T01:53:46;9.60;99.90
52211;DHT22;38179;52.756;6.906;2022-12-20T01:56:13;9.60;99.90
52211;DHT22;38179;52.756;6.906;2022-12-20T01:58:39;9.60;99.90
52211;DHT22;38179;52.756;6.906;2022-12-20T02:01:06;9.60;99.90
52211;DHT22;38179;52.756;6.906;2022-12-20T02:03:32;9.60;99.90
52211;DHT22;38179;52.756;6.906;2022-12-20T02:06:16;9.60;99.90
52211;DHT22;38179;52.756;6.906;2022-12-20T02:08:44;9.60;99.90
52211;DHT22;38179;52.756;6.906;2022-12-20T02:17:13;9.70;99.90
52211;DHT22;38179;52.756;6.906;2022-12-20T02:26:21;9.70;99.90
52211;DHT22;38179;52.756;6.906;2022-12-20T02:32:11;9.80;99.90
52211;DHT22;38179;52.756;6.906;2022-12-20T02:34:35;9.80;99.90
52211;DHT22;38179;52.756;6.906;2022-12-20T02:37:02;9.80;99.90
52211;DHT22;38179;52.756;6.906;2022-12-20T02:39:30;9.80;99.90
52211;DHT22;38179;52.756;6.906;2022-12-20T02:42:08;9.70;99.90
52211;DHT22;38179;52.756;6.906;2022-12-20T02:44:37;9.70;99.90
52211;DHT22;38179;52.756;6.906;2022-12-20T02:47:30;9.80;99.90
52211;DHT22;38179;52.756;6.906;2022-12-20T02:49:58;9.70;99.90
52211;DHT22;38179;52.756;6.906;2022-12-20T02:52:26;9.70;99.90
52211;DHT22;38179;52.756;6.906;2022-12-20T02:54:54;9.80;99.90
52211;DHT22;38179;52.756;6.906;2022-12-20T02:57:44;9.80;99.90
52211;DHT22;38179;52.756;6.906;2022-12-20T03:00:18;9.80;99.90
52211;DHT22;38179;52.756;6.906;2022-12-20T03:02:46;9.70;99.90
52211;DHT22;38179;52.756;6.906;2022-12-20T03:05:34;9.70;99.90
52211;DHT22;38179;52.756;6.906;2022-12-20T03:08:00;9.70;99.90
52211;DHT22;38179;52.756;6.906;2022-12-20T03:10:26;9.70;99.90
52211;DHT22;38179;52.756;6.906;2022-12-20T03:12:52;9.70;99.90
52211;DHT22;38179;52.756;6.906;2022-12-20T03:15:19;9.80;99.90
52211;DHT22;38179;52.756;6.906;2022-12-20T03:17:44;9.80;99.90
52211;DHT22;38179;52.756;6.906;2022-12-20T03:20:10;9.80;99.90
52211;DHT22;38179;52.756;6.906;2022-12-20T03:22:37;9.80;99.90
52211;DHT22;38179;52.756;6.906;2022-12-20T03:25:03;9.80;99.90
52211;DHT22;38179;52.756;6.906;2022-12-20T03:27:29;9.70;99.90
52211;DHT22;38179;52.756;6.906;2022-12-20T03:29:55;9.70;99.90
52211;DHT22;38179;52.756;6.906;2022-12-20T03:32:21;9.70;99.90
52211;DHT22;38179;52.756;6.906;2022-12-20T03:34:47;9.70;99.90
52211;DHT22;38179;52.756;6.906;2022-12-20T03:37:13;9.60;99.90
52211;DHT22;38179;52.756;6.906;2022-12-20T03:39:39;9.50;99.90
52211;DHT22;38179;52.756;6.906;2022-12-20T03:42:05;9.50;99.90
52211;DHT22;38179;52.756;6.906;2022-12-20T03:44:34;9.40;99.90
52211;DHT22;38179;52.756;6.906;2022-12-20T03:47:00;9.40;99.90
52211;DHT22;38179;52.756;6.906;2022-12-20T03:49:26;9.40;99.90
52211;DHT22;38179;52.756;6.906;2022-12-20T03:51:52;9.30;99.90
52211;DHT22;38179;52.756;6.906;2022-12-20T03:54:18;9.30;99.90
52211;DHT22;38179;52.756;6.906;2022-12-20T03:56:44;9.30;99.90
52211;DHT22;38179;52.756;6.906;2022-12-20T03:59:10;9.30;99.90
52211;DHT22;38179;52.756;6.906;2022-12-20T04:01:35;9.30;99.90
52211;DHT22;38179;52.756;6.906;2022-12-20T04:04:03;9.30;99.90
52211;DHT22;38179;52.756;6.906;2022-12-20T04:06:30;9.30;99.90
52211;DHT22;38179;52.756;6.906;2022-12-20T04:08:56;9.30;99.90
52211;DHT22;38179;52.756;6.906;2022-12-20T04:11:22;9.30;99.90
52211;DHT22;38179;52.756;6.906;2022-12-20T04:13:50;9.30;99.90
52211;DHT22;38179;52.756;6.906;2022-12-20T04:16:18;9.30;99.90
52211;DHT22;38179;52.756;6.906;2022-12-20T04:18:44;9.30;99.90
52211;DHT22;38179;52.756;6.906;2022-12-20T04:21:11;9.30;99.90
52211;DHT22;38179;52.756;6.906;2022-12-20T04:23:38;9.30;99.90
52211;DHT22;38179;52.756;6.906;2022-12-20T04:26:06;9.40;99.90
52211;DHT22;38179;52.756;6.906;2022-12-20T04:28:32;9.30;99.90
52211;DHT22;38179;52.756;6.906;2022-12-20T04:30:59;9.30;99.90
52211;DHT22;38179;52.756;6.906;2022-12-20T04:33:26;9.30;99.90
52211;DHT22;38179;52.756;6.906;2022-12-20T04:35:52;9.30;99.90
52211;DHT22;38179;52.756;6.906;2022-12-20T04:38:19;9.40;99.90
52211;DHT22;38179;52.756;6.906;2022-12-20T04:40:48;9.40;99.90
52211;DHT22;38179;52.756;6.906;2022-12-20T04:43:15;9.40;99.90
52211;DHT22;38179;52.756;6.906;2022-12-20T04:45:40;9.40;99.90
52211;DHT22;38179;52.756;6.906;2022-12-20T04:48:06;9.40;99.90
52211;DHT22;38179;52.756;6.906;2022-12-20T04:50:32;9.40;99.90
52211;DHT22;38179;52.756;6.906;2022-12-20T04:52:58;9.50;99.90
52211;DHT22;38179;52.756;6.906;2022-12-20T04:55:42;9.50;99.90
52211;DHT22;38179;52.756;6.906;2022-12-20T04:58:08;9.50;99.90
52211;DHT22;38179;52.756;6.906;2022-12-20T05:00:35;9.50;99.90
52211;DHT22;38179;52.756;6.906;2022-12-20T05:03:01;9.50;99.90
52211;DHT22;38179;52.756;6.906;2022-12-20T05:05:27;9.60;99.90
52211;DHT22;38179;52.756;6.906;2022-12-20T05:07:54;9.60;99.90
52211;DHT22;38179;52.756;6.906;2022-12-20T05:10:20;9.60;99.90
52211;DHT22;38179;52.756;6.906;2022-12-20T05:12:46;9.70;99.90
52211;DHT22;38179;52.756;6.906;2022-12-20T05:15:12;9.80;99.90
52211;DHT22;38179;52.756;6.906;2022-12-20T05:17:37;9.80;99.90
52211;DHT22;38179;52.756;6.906;2022-12-20T05:20:05;9.80;99.90
52211;DHT22;38179;52.756;6.906;2022-12-20T05:22:31;9.90;99.90
52211;DHT22;38179;52.756;6.906;2022-12-20T05:25:15;9.90;99.90
52211;DHT22;38179;52.756;6.906;2022-12-20T05:28:00;9.90;99.90
52211;DHT22;38179;52.756;6.906;2022-12-20T05:30:26;10.00;99.90
52211;DHT22;38179;52.756;6.906;2022-12-20T05:32:52;10.00;99.90
52211;DHT22;38179;52.756;6.906;2022-12-20T05:35:18;10.10;99.90
52211;DHT22;38179;52.756;6.906;2022-12-20T05:37:44;10.10;99.90
52211;DHT22;38179;52.756;6.906;2022-12-20T05:40:11;10.20;99.90
52211;DHT22;38179;52.756;6.906;2022-12-20T05:42:37;10.20;99.90
52211;DHT22;38179;52.756;6.906;2022-12-20T05:45:04;10.20;99.90
52211;DHT22;38179;52.756;6.906;2022-12-20T05:47:31;10.20;99.90
52211;DHT22;38179;52.756;6.906;2022-12-20T05:50:02;10.30;99.90
52211;DHT22;38179;52.756;6.906;2022-12-20T05:52:28;10.30;99.90
52211;DHT22;38179;52.756;6.906;2022-12-20T05:54:54;10.30;99.90
52211;DHT22;38179;52.756;6.906;2022-12-20T05:57:21;10.30;99.90
52211;DHT22;38179;52.756;6.906;2022-12-20T05:59:47;10.30;99.90
52211;DHT22;38179;52.756;6.906;2022-12-20T06:02:13;10.40;99.90
52211;DHT22;38179;52.756;6.906;2022-12-20T06:04:39;10.40;99.90
52211;DHT22;38179;52.756;6.906;2022-12-20T06:07:05;10.40;99.90
52211;DHT22;38179;52.756;6.906;2022-12-20T06:09:31;10.30;99.90
52211;DHT22;38179;52.756;6.906;2022-12-20T06:11:57;10.20;99.90
52211;DHT22;38179;52.756;6.906;2022-12-20T06:14:24;10.20;99.90
52211;DHT22;38179;52.756;6.906;2022-12-20T06:16:50;10.20;99.90
52211;DHT22;38179;52.756;6.906;2022-12-20T06:19:16;10.20;99.90
52211;DHT22;38179;52.756;6.906;2022-12-20T06:21:42;10.20;99.90
52211;DHT22;38179;52.756;6.906;2022-12-20T06:24:08;10.20;99.90
52211;DHT22;38179;52.756;6.906;2022-12-20T06:26:34;10.20;99.90
52211;DHT22;38179;52.756;6.906;2022-12-20T06:29:04;10.20;99.90
52211;DHT22;38179;52.756;6.906;2022-12-20T06:31:32;10.30;99.90
52211;DHT22;38179;52.756;6.906;2022-12-20T06:33:58;10.30;99.90
52211;DHT22;38179;52.756;6.906;2022-12-20T06:36:25;10.30;99.90
52211;DHT22;38179;52.756;6.906;2022-12-20T06:38:51;10.30;99.90
52211;DHT22;38179;52.756;6.906;2022-12-20T06:41:17;10.30;99.90
52211;DHT22;38179;52.756;6.906;2022-12-20T06:43:43;10.30;99.90
52211;DHT22;38179;52.756;6.906;2022-12-20T06:46:09;10.20;99.90
52211;DHT22;38179;52.756;6.906;2022-12-20T06:48:35;10.20;99.90
52211;DHT22;38179;52.756;6.906;2022-12-20T06:51:00;10.20;99.90
52211;DHT22;38179;52.756;6.906;2022-12-20T06:53:26;10.20;99.90
52211;DHT22;38179;52.756;6.906;2022-12-20T06:55:52;10.20;99.90
52211;DHT22;38179;52.756;6.906;2022-12-20T06:58:19;10.10;99.90
52211;DHT22;38179;52.756;6.906;2022-12-20T07:00:45;10.10;99.90
52211;DHT22;38179;52.756;6.906;2022-12-20T07:03:11;10.10;99.90
52211;DHT22;38179;52.756;6.906;2022-12-20T07:05:38;10.00;99.90
52211;DHT22;38179;52.756;6.906;2022-12-20T07:08:04;9.90;99.90
52211;DHT22;38179;52.756;6.906;2022-12-20T07:10:32;9.90;99.90
52211;DHT22;38179;52.756;6.906;2022-12-20T07:12:59;9.90;99.90
52211;DHT22;38179;52.756;6.906;2022-12-20T07:15:25;9.90;99.90
52211;DHT22;38179;52.756;6.906;2022-12-20T07:17:51;9.90;99.90
52211;DHT22;38179;52.756;6.906;2022-12-20T07:20:17;9.90;99.90
52211;DHT22;38179;52.756;6.906;2022-12-20T07:22:44;9.90;99.90
52211;DHT22;38179;52.756;6.906;2022-12-20T07:25:11;10.00;99.90
52211;DHT22;38179;52.756;6.906;2022-12-20T07:27:37;10.00;99.90
52211;DHT22;38179;52.756;6.906;2022-12-20T07:30:04;10.00;99.90
52211;DHT22;38179;52.756;6.906;2022-12-20T07:32:30;10.00;99.90
52211;DHT22;38179;52.756;6.906;2022-12-20T07:34:56;10.00;99.90
52211;DHT22;38179;52.756;6.906;2022-12-20T07:37:22;9.90;99.90
52211;DHT22;38179;52.756;6.906;2022-12-20T07:39:48;9.90;99.90
52211;DHT22;38179;52.756;6.906;2022-12-20T07:42:14;9.90;99.90
52211;DHT22;38179;52.756;6.906;2022-12-20T07:44:41;9.80;99.90
52211;DHT22;38179;52.756;6.906;2022-12-20T07:47:07;9.80;99.90
52211;DHT22;38179;52.756;6.906;2022-12-20T07:49:34;9.80;99.90
52211;DHT22;38179;52.756;6.906;2022-12-20T07:52:01;9.80;99.90
52211;DHT22;38179;52.756;6.906;2022-12-20T07:54:40;9.90;99.90
52211;DHT22;38179;52.756;6.906;2022-12-20T07:57:15;9.90;99.90
52211;DHT22;38179;52.756;6.906;2022-12-20T07:59:48;9.90;99.90
52211;DHT22;38179;52.756;6.906;2022-12-20T08:02:18;10.00;99.90
52211;DHT22;38179;52.756;6.906;2022-12-20T08:04:46;10.00;99.90
52211;DHT22;38179;52.756;6.906;2022-12-20T08:07:13;10.00;99.90
52211;DHT22;38179;52.756;6.906;2022-12-20T08:09:41;10.10;99.90
52211;DHT22;38179;52.756;6.906;2022-12-20T08:12:09;10.10;99.90
52211;DHT22;38179;52.756;6.906;2022-12-20T08:14:40;10.10;99.90
52211;DHT22;38179;52.756;6.906;2022-12-20T08:17:06;10.20;99.90
52211;DHT22;38179;52.756;6.906;2022-12-20T08:19:32;10.20;99.90
52211;DHT22;38179;52.756;6.906;2022-12-20T08:21:58;10.20;99.90
52211;DHT22;38179;52.756;6.906;2022-12-20T08:24:25;10.20;99.90
52211;DHT22;38179;52.756;6.906;2022-12-20T08:26:51;10.20;99.90
52211;DHT22;38179;52.756;6.906;2022-12-20T08:29:17;10.30;99.90
52211;DHT22;38179;52.756;6.906;2022-12-20T08:31:43;10.30;99.90
52211;DHT22;38179;52.756;6.906;2022-12-20T08:34:09;10.40;99.90
52211;DHT22;38179;52.756;6.906;2022-12-20T08:36:35;10.40;99.90
52211;DHT22;38179;52.756;6.906;2022-12-20T08:39:05;10.40;99.90
52211;DHT22;38179;52.756;6.906;2022-12-20T08:41:33;10.40;99.90
52211;DHT22;38179;52.756;6.906;2022-12-20T08:44:01;10.40;99.90
52211;DHT22;38179;52.756;6.906;2022-12-20T08:46:27;10.40;99.90
52211;DHT22;38179;52.756;6.906;2022-12-20T08:48:53;10.50;99.90
52211;DHT22;38179;52.756;6.906;2022-12-20T08:51:19;10.50;99.90
52211;DHT22;38179;52.756;6.906;2022-12-20T08:53:45;10.50;99.90
52211;DHT22;38179;52.756;6.906;2022-12-20T08:56:13;10.50;99.90
52211;DHT22;38179;52.756;6.906;2022-12-20T08:58:40;10.50;99.90
52211;DHT22;38179;52.756;6.906;2022-12-20T09:01:10;10.60;99.90
52211;DHT22;38179;52.756;6.906;2022-12-20T09:03:36;10.60;99.90
52211;DHT22;38179;52.756;6.906;2022-12-20T09:06:14;10.60;99.90
52211;DHT22;38179;52.756;6.906;2022-12-20T09:08:40;10.60;99.90
52211;DHT22;38179;52.756;6.906;2022-12-20T09:11:09;10.60;99.90
52211;DHT22;38179;52.756;6.906;2022-12-20T09:13:37;10.60;99.90
52211;DHT22;38179;52.756;6.906;2022-12-20T09:16:05;10.60;99.90
52211;DHT22;38179;52.756;6.906;2022-12-20T09:18:32;10.60;99.90
52211;DHT22;38179;52.756;6.906;2022-12-20T09:20:59;10.60;99.90
52211;DHT22;38179;52.756;6.906;2022-12-20T09:23:26;10.50;99.90
52211;DHT22;38179;52.756;6.906;2022-12-20T09:25:52;10.50;99.90
52211;DHT22;38179;52.756;6.906;2022-12-20T09:28:18;10.50;99.90
52211;DHT22;38179;52.756;6.906;2022-12-20T09:30:44;10.50;99.90
52211;DHT22;38179;52.756;6.906;2022-12-20T09:33:10;10.50;99.90
52211;DHT22;38179;52.756;6.906;2022-12-20T09:35:43;10.50;99.90
52211;DHT22;38179;52.756;6.906;2022-12-20T09:38:09;10.50;99.90
52211;DHT22;38179;52.756;6.906;2022-12-20T09:40:35;10.60;99.90
52211;DHT22;38179;52.756;6.906;2022-12-20T09:43:04;10.60;99.90
52211;DHT22;38179;52.756;6.906;2022-12-20T09:45:34;10.60;99.90
52211;DHT22;38179;52.756;6.906;2022-12-20T09:48:02;10.60;99.90
52211;DHT22;38179;52.756;6.906;2022-12-20T09:53:44;10.60;99.90
52211;DHT22;38179;52.756;6.906;2022-12-20T09:59:29;10.50;99.90
52211;DHT22;38179;52.756;6.906;2022-12-20T10:01:58;10.50;99.90
52211;DHT22;38179;52.756;6.906;2022-12-20T10:04:28;10.40;99.90
52211;DHT22;38179;52.756;6.906;2022-12-20T10:07:28;10.40;99.90
52211;DHT22;38179;52.756;6.906;2022-12-20T10:10:31;10.40;99.90
52211;DHT22;38179;52.756;6.906;2022-12-20T10:15:59;10.20;99.90
52211;DHT22;38179;52.756;6.906;2022-12-20T10:24:17;10.00;99.90
52211;DHT22;38179;52.756;6.906;2022-12-20T10:26:43;10.00;99.90
52211;DHT22;38179;52.756;6.906;2022-12-20T10:29:10;9.90;99.90
52211;DHT22;38179;52.756;6.906;2022-12-20T10:31:37;9.80;99.90
52211;DHT22;38179;52.756;6.906;2022-12-20T10:34:04;9.80;99.90
52211;DHT22;38179;52.756;6.906;2022-12-20T10:36:34;9.80;99.90
52211;DHT22;38179;52.756;6.906;2022-12-20T10:39:05;9.70;99.90
52211;DHT22;38179;52.756;6.906;2022-12-20T10:41:46;9.70;99.90
52211;DHT22;38179;52.756;6.906;2022-12-20T10:47:19;9.70;99.90
52211;DHT22;38179;52.756;6.906;2022-12-20T10:49:48;9.70;99.90
52211;DHT22;38179;52.756;6.906;2022-12-20T10:52:14;9.70;99.90
52211;DHT22;38179;52.756;6.906;2022-12-20T10:54:46;9.60;99.90
52211;DHT22;38179;52.756;6.906;2022-12-20T10:57:19;9.60;99.90
52211;DHT22;38179;52.756;6.906;2022-12-20T10:59:52;9.60;99.90
52211;DHT22;38179;52.756;6.906;2022-12-20T11:02:28;9.60;99.90
52211;DHT22;38179;52.756;6.906;2022-12-20T11:07:36;9.60;99.90
52211;DHT22;38179;52.756;6.906;2022-12-20T11:10:22;9.60;99.90
52211;DHT22;38179;52.756;6.906;2022-12-20T11:13:02;9.70;99.90
52211;DHT22;38179;52.756;6.906;2022-12-20T11:15:34;9.70;99.90
52211;DHT22;38179;52.756;6.906;2022-12-20T11:18:13;9.70;99.90
52211;DHT22;38179;52.756;6.906;2022-12-20T11:23:38;9.70;99.90
52211;DHT22;38179;52.756;6.906;2022-12-20T11:26:31;9.70;99.90
52211;DHT22;38179;52.756;6.906;2022-12-20T11:29:36;9.70;99.90
52211;DHT22;38179;52.756;6.906;2022-12-20T11:37:26;9.70;99.90
52211;DHT22;38179;52.756;6.906;2022-12-20T11:53:47;9.70;99.90
52211;DHT22;38179;52.756;6.906;2022-12-20T11:56:20;9.70;99.90
52211;DHT22;38179;52.756;6.906;2022-12-20T11:58:49;9.60;99.90
52211;DHT22;38179;52.756;6.906;2022-12-20T12:01:20;9.70;99.90
52211;DHT22;38179;52.756;6.906;2022-12-20T12:04:08;9.60;99.90
52211;DHT22;38179;52.756;6.906;2022-12-20T12:09:44;9.60;99.90
52211;DHT22;38179;52.756;6.906;2022-12-20T12:12:28;9.60;99.90
52211;DHT22;38179;52.756;6.906;2022-12-20T12:14:58;9.60;99.90
52211;DHT22;38179;52.756;6.906;2022-12-20T12:17:37;9.60;99.90
52211;DHT22;38179;52.756;6.906;2022-12-20T12:22:46;9.60;99.90
52211;DHT22;38179;52.756;6.906;2022-12-20T12:25:16;9.60;99.90
52211;DHT22;38179;52.756;6.906;2022-12-20T12:27:43;9.60;99.90
52211;DHT22;38179;52.756;6.906;2022-12-20T12:30:13;9.60;99.90
52211;DHT22;38179;52.756;6.906;2022-12-20T12:32:51;9.60;99.90
52211;DHT22;38179;52.756;6.906;2022-12-20T12:35:45;9.60;99.90
52211;DHT22;38179;52.756;6.906;2022-12-20T12:41:43;9.70;99.90
52211;DHT22;38179;52.756;6.906;2022-12-20T12:46:44;9.70;99.90
52211;DHT22;38179;52.756;6.906;2022-12-20T12:49:18;9.60;99.90
52211;DHT22;38179;52.756;6.906;2022-12-20T12:51:57;9.60;99.90
52211;DHT22;38179;52.756;6.906;2022-12-20T12:57:11;9.60;99.90
52211;DHT22;38179;52.756;6.906;2022-12-20T13:17:59;9.70;99.90
52211;DHT22;38179;52.756;6.906;2022-12-20T13:20:30;9.70;99.90
52211;DHT22;38179;52.756;6.906;2022-12-20T13:33:46;9.70;99.90
52211;DHT22;38179;52.756;6.906;2022-12-20T13:49:36;9.60;99.90
52211;DHT22;38179;52.756;6.906;2022-12-20T13:54:53;9.60;99.90
52211;DHT22;38179;52.756;6.906;2022-12-20T13:57:29;9.70;99.90
52211;DHT22;38179;52.756;6.906;2022-12-20T13:59:59;9.70;99.90
52211;DHT22;38179;52.756;6.906;2022-12-20T14:02:32;9.70;99.90
52211;DHT22;38179;52.756;6.906;2022-12-20T14:05:05;9.70;99.90
52211;DHT22;38179;52.756;6.906;2022-12-20T14:07:36;9.70;99.90
52211;DHT22;38179;52.756;6.906;2022-12-20T14:10:11;9.70;99.90
52211;DHT22;38179;52.756;6.906;2022-12-20T14:12:44;9.70;99.90
52211;DHT22;38179;52.756;6.906;2022-12-20T14:15:40;9.70;99.90
52211;DHT22;38179;52.756;6.906;2022-12-20T14:18:20;9.70;99.90
52211;DHT22;38179;52.756;6.906;2022-12-20T14:21:05;9.70;99.90
52211;DHT22;38179;52.756;6.906;2022-12-20T14:23:45;9.70;99.90
52211;DHT22;38179;52.756;6.906;2022-12-20T14:26:18;9.80;99.90
52211;DHT22;38179;52.756;6.906;2022-12-20T14:28:51;9.80;99.90
52211;DHT22;38179;52.756;6.906;2022-12-20T14:31:25;9.80;99.90
52211;DHT22;38179;52.756;6.906;2022-12-20T14:34:13;9.80;99.90
52211;DHT22;38179;52.756;6.906;2022-12-20T14:36:45;9.80;99.90
52211;DHT22;38179;52.756;6.906;2022-12-20T14:55:44;9.90;99.90
52211;DHT22;38179;52.756;6.906;2022-12-20T14:58:32;9.90;99.90
52211;DHT22;38179;52.756;6.906;2022-12-20T15:01:23;9.90;99.90
52211;DHT22;38179;52.756;6.906;2022-12-20T15:03:55;9.90;99.90
52211;DHT22;38179;52.756;6.906;2022-12-20T15:06:40;9.90;99.90
52211;DHT22;38179;52.756;6.906;2022-12-20T15:09:08;9.90;99.90
52211;DHT22;38179;52.756;6.906;2022-12-20T15:11:36;9.90;99.90
52211;DHT22;38179;52.756;6.906;2022-12-20T15:14:34;9.90;99.90
52211;DHT22;38179;52.756;6.906;2022-12-20T15:17:04;10.00;99.90
52211;DHT22;38179;52.756;6.906;2022-12-20T15:19:41;9.90;99.90
52211;DHT22;38179;52.756;6.906;2022-12-20T15:22:17;9.90;99.90
52211;DHT22;38179;52.756;6.906;2022-12-20T15:25:13;9.90;99.90
52211;DHT22;38179;52.756;6.906;2022-12-20T15:27:41;9.90;99.90
52211;DHT22;38179;52.756;6.906;2022-12-20T15:30:18;10.00;99.90
52211;DHT22;38179;52.756;6.906;2022-12-20T15:32:44;10.00;99.90
52211;DHT22;38179;52.756;6.906;2022-12-20T15:35:13;9.90;99.90
52211;DHT22;38179;52.756;6.906;2022-12-20T15:37:40;10.00;99.90
52211;DHT22;38179;52.756;6.906;2022-12-20T15:40:09;10.00;99.90
52211;DHT22;38179;52.756;6.906;2022-12-20T15:42:40;10.00;99.90
52211;DHT22;38179;52.756;6.906;2022-12-20T15:45:11;9.90;99.90
52211;DHT22;38179;52.756;6.906;2022-12-20T15:47:37;9.90;99.90
52211;DHT22;38179;52.756;6.906;2022-12-20T15:50:04;9.90;99.90
52211;DHT22;38179;52.756;6.906;2022-12-20T15:52:30;9.90;99.90
52211;DHT22;38179;52.756;6.906;2022-12-20T15:54:57;9.90;99.90
52211;DHT22;38179;52.756;6.906;2022-12-20T15:57:23;9.90;99.90
52211;DHT22;38179;52.756;6.906;2022-12-20T15:59:49;9.90;99.90
52211;DHT22;38179;52.756;6.906;2022-12-20T16:02:27;9.90;99.90
52211;DHT22;38179;52.756;6.906;2022-12-20T16:04:54;9.90;99.90
52211;DHT22;38179;52.756;6.906;2022-12-20T16:07:20;9.90;99.90
52211;DHT22;38179;52.756;6.906;2022-12-20T16:09:46;10.00;99.90
52211;DHT22;38179;52.756;6.906;2022-12-20T16:12:17;9.90;99.90
52211;DHT22;38179;52.756;6.906;2022-12-20T16:14:43;9.90;99.90
52211;DHT22;38179;52.756;6.906;2022-12-20T16:17:13;9.90;99.90
52211;DHT22;38179;52.756;6.906;2022-12-20T16:19:40;9.90;99.90
52211;DHT22;38179;52.756;6.906;2022-12-20T16:22:17;9.90;99.90
52211;DHT22;38179;52.756;6.906;2022-12-20T16:24:44;9.90;99.90
52211;DHT22;38179;52.756;6.906;2022-12-20T16:27:10;9.90;99.90
52211;DHT22;38179;52.756;6.906;2022-12-20T16:29:36;9.90;99.90
52211;DHT22;38179;52.756;6.906;2022-12-20T16:32:02;9.90;99.90
52211;DHT22;38179;52.756;6.906;2022-12-20T16:34:32;9.90;99.90
52211;DHT22;38179;52.756;6.906;2022-12-20T16:36:58;10.00;99.90
52211;DHT22;38179;52.756;6.906;2022-12-20T16:39:25;10.00;99.90
52211;DHT22;38179;52.756;6.906;2022-12-20T16:41:51;9.90;99.90
52211;DHT22;38179;52.756;6.906;2022-12-20T16:44:17;9.90;99.90
52211;DHT22;38179;52.756;6.906;2022-12-20T16:46:43;10.00;99.90
52211;DHT22;38179;52.756;6.906;2022-12-20T16:49:10;10.00;99.90
52211;DHT22;38179;52.756;6.906;2022-12-20T16:54:11;10.00;99.90
52211;DHT22;38179;52.756;6.906;2022-12-20T16:56:38;9.90;99.90
52211;DHT22;38179;52.756;6.906;2022-12-20T16:59:05;9.90;99.90
52211;DHT22;38179;52.756;6.906;2022-12-20T17:01:37;9.90;99.90
52211;DHT22;38179;52.756;6.906;2022-12-20T17:04:04;9.90;99.90
52211;DHT22;38179;52.756;6.906;2022-12-20T17:06:31;9.90;99.90
52211;DHT22;38179;52.756;6.906;2022-12-20T17:08:57;9.90;99.90
52211;DHT22;38179;52.756;6.906;2022-12-20T17:11:29;9.90;99.90
52211;DHT22;38179;52.756;6.906;2022-12-20T17:13:56;9.90;99.90
52211;DHT22;38179;52.756;6.906;2022-12-20T17:16:23;9.90;99.90
52211;DHT22;38179;52.756;6.906;2022-12-20T17:18:51;9.90;99.90
52211;DHT22;38179;52.756;6.906;2022-12-20T17:23:52;10.00;99.90
52211;DHT22;38179;52.756;6.906;2022-12-20T17:26:23;9.90;99.90
52211;DHT22;38179;52.756;6.906;2022-12-20T17:28:50;9.90;99.90
52211;DHT22;38179;52.756;6.906;2022-12-20T17:33:51;9.90;99.90
52211;DHT22;38179;52.756;6.906;2022-12-20T17:36:17;9.90;99.90
52211;DHT22;38179;52.756;6.906;2022-12-20T17:38:43;9.90;99.90
52211;DHT22;38179;52.756;6.906;2022-12-20T17:41:25;9.90;99.90
52211;DHT22;38179;52.756;6.906;2022-12-20T17:43:53;9.90;99.90
52211;DHT22;38179;52.756;6.906;2022-12-20T17:46:19;9.90;99.90
52211;DHT22;38179;52.756;6.906;2022-12-20T17:48:46;9.90;99.90
52211;DHT22;38179;52.756;6.906;2022-12-20T17:51:18;9.90;99.90
52211;DHT22;38179;52.756;6.906;2022-12-20T17:53:46;9.90;99.90
52211;DHT22;38179;52.756;6.906;2022-12-20T17:56:14;9.80;99.90
52211;DHT22;38179;52.756;6.906;2022-12-20T17:58:42;9.80;99.90
52211;DHT22;38179;52.756;6.906;2022-12-20T18:03:44;9.80;99.90
52211;DHT22;38179;52.756;6.906;2022-12-20T18:06:10;9.80;99.90
52211;DHT22;38179;52.756;6.906;2022-12-20T18:08:36;9.80;99.90
52211;DHT22;38179;52.756;6.906;2022-12-20T18:11:02;9.70;99.90
52211;DHT22;38179;52.756;6.906;2022-12-20T18:13:28;9.70;99.90
52211;DHT22;38179;52.756;6.906;2022-12-20T18:15:54;9.70;99.90
52211;DHT22;38179;52.756;6.906;2022-12-20T18:18:19;9.80;99.90
52211;DHT22;38179;52.756;6.906;2022-12-20T18:20:45;9.70;99.90
52211;DHT22;38179;52.756;6.906;2022-12-20T18:23:11;9.70;99.90